sensor_id;sensor_type;location;lat;lon;timestamp;temperature;humidity
36752;DHT22;22718;49.494;7.036;2023-11-22T20:03:34;1.20;99.90
36752;DHT22;22718;49.494;7.036;2023-11-22T20:06:00;1.20;99.90
36752;DHT22;22718;49.494;7.036;2023-11-22T20:08:29;1.10;99.90
36752;DHT22;22718;49.494;7.036;2023-11-22T20:10:55;1.10;99.90
36752;DHT22;22718;49.494;7.036;2023-11-22T20:13:24;1.10;99.90
36752;DHT22;22718;49.494;7.036;2023-11-22T20:15:51;1.10;99.90
36752;DHT22;22718;49.494;7.036;2023-11-22T20:18:17;0.90;99.90
36752;DHT22;22718;49.494;7.036;2023-11-22T20:20:46;1.00;99.90
36752;DHT22;22718;49.494;7.036;2023-11-22T20:23:19;0.90;99.90
36752;DHT22;22718;49.494;7.036;2023-11-22T20:25:49;0.80;99.90
36752;DHT22;22718;49.494;7.036;2023-11-22T20:28:14;0.80;99.90
36752;DHT22;22718;49.494;7.036;2023-11-22T20:30:47;0.70;99.90
36752;DHT22;22718;49.494;7.036;2023-11-22T20:33:13;0.80;99.90
36752;DHT22;22718;49.494;7.036;2023-11-22T20:35:39;0.80;99.90
36752;DHT22;22718;49.494;7.036;2023-11-22T20:38:09;0.80;99.90
36752;DHT22;22718;49.494;7.036;2023-11-22T20:40:35;0.80;99.90
36752;DHT22;22718;49.494;7.036;2023-11-22T20:43:02;0.70;99.90
36752;DHT22;22718;49.494;7.036;2023-11-22T20:45:27;0.70;99.90
36752;DHT22;22718;49.494;7.036;2023-11-22T20:47:53;0.70;99.90
36752;DHT22;22718;49.494;7.036;2023-11-22T20:50:19;0.70;99.90
36752;DHT22;22718;49.494;7.036;2023-11-22T20:52:47;0.70;99.90
36752;DHT22;22718;49.494;7.036;2023-11-22T20:55:14;0.70;99.90
36752;DHT22;22718;49.494;7.036;2023-11-22T20:57:41;0.70;99.90
36752;DHT22;22718;49.494;7.036;2023-11-22T21:00:14;0.60;99.90
36752;DHT22;22718;49.494;7.036;2023-11-22T21:02:43;0.60;99.90
36752;DHT22;22718;49.494;7.036;2023-11-22T21:05:09;0.70;99.90
36752;DHT22;22718;49.494;7.036;2023-11-22T21:07:37;0.70;99.90
36752;DHT22;22718;49.494;7.036;2023-11-22T21:10:11;0.70;99.90
36752;DHT22;22718;49.494;7.036;2023-11-22T21:12:38;0.80;99.90
36752;DHT22;22718;49.494;7.036;2023-11-22T21:15:07;0.80;99.90
36752;DHT22;22718;49.494;7.036;2023-11-22T21:17:34;0.80;99.90
36752;DHT22;22718;49.494;7.036;2023-11-22T21:20:01;0.80;99.90
36752;DHT22;22718;49.494;7.036;2023-11-22T21:22:35;0.90;99.90
36752;DHT22;22718;49.494;7.036;2023-11-22T21:25:00;0.90;99.90
36752;DHT22;22718;49.494;7.036;2023-11-22T21:27:26;1.00;99.90
36752;DHT22;22718;49.494;7.036;2023-11-22T21:29:53;1.10;99.90
36752;DHT22;22718;49.494;7.036;2023-11-22T21:32:33;1.20;99.90
36752;DHT22;22718;49.494;7.036;2023-11-22T21:34:59;1.20;99.90
36752;DHT22;22718;49.494;7.036;2023-11-22T21:37:24;1.20;99.90
36752;DHT22;22718;49.494;7.036;2023-11-22T21:39:50;1.20;99.90
36752;DHT22;22718;49.494;7.036;2023-11-22T21:42:16;1.30;99.90
36752;DHT22;22718;49.494;7.036;2023-11-22T21:44:42;1.30;99.90
36752;DHT22;22718;49.494;7.036;2023-11-22T21:47:08;1.30;99.90
36752;DHT22;22718;49.494;7.036;2023-11-22T21:49:36;1.30;99.90
36752;DHT22;22718;49.494;7.036;2023-11-22T21:52:06;1.30;99.90
36752;DHT22;22718;49.494;7.036;2023-11-22T21:54:36;1.40;99.90
36752;DHT22;22718;49.494;7.036;2023-11-22T21:57:04;1.40;99.90
36752;DHT22;22718;49.494;7.036;2023-11-22T21:59:30;1.40;99.90
36752;DHT22;22718;49.494;7.036;2023-11-22T22:01:59;1.40;99.90
36752;DHT22;22718;49.494;7.036;2023-11-22T22:04:26;1.30;99.90
36752;DHT22;22718;49.494;7.036;2023-11-22T22:06:51;1.30;99.90
36752;DHT22;22718;49.494;7.036;2023-11-22T22:09:21;1.40;99.90
36752;DHT22;22718;49.494;7.036;2023-11-22T22:11:54;1.40;99.90
36752;DHT22;22718;49.494;7.036;2023-11-22T22:14:20;1.40;99.90
36752;DHT22;22718;49.494;7.036;2023-11-22T22:16:46;1.40;99.90
36752;DHT22;22718;49.494;7.036;2023-11-22T22:19:15;1.40;99.90
36752;DHT22;22718;49.494;7.036;2023-11-22T22:21:44;1.40;99.90
36752;DHT22;22718;49.494;7.036;2023-11-22T22:24:41;1.40;99.90
36752;DHT22;22718;49.494;7.036;2023-11-22T22:27:37;1.40;99.90
36752;DHT22;22718;49.494;7.036;2023-11-22T22:30:09;1.40;99.90
36752;DHT22;22718;49.494;7.036;2023-11-22T22:33:12;1.40;99.90
36752;DHT22;22718;49.494;7.036;2023-11-22T22:35:53;1.40;99.90
36752;DHT22;22718;49.494;7.036;2023-11-22T22:38:33;1.40;99.90
36752;DHT22;22718;49.494;7.036;2023-11-22T22:41:20;1.30;99.90
36752;DHT22;22718;49.494;7.036;2023-11-22T22:44:31;1.20;99.90
36752;DHT22;22718;49.494;7.036;2023-11-22T22:47:20;1.10;99.90
36752;DHT22;22718;49.494;7.036;2023-11-22T22:49:47;1.10;99.90
36752;DHT22;22718;49.494;7.036;2023-11-22T22:52:21;1.10;99.90
36752;DHT22;22718;49.494;7.036;2023-11-22T22:54:46;1.00;99.90
36752;DHT22;22718;49.494;7.036;2023-11-22T22:57:15;1.00;99.90
36752;DHT22;22718;49.494;7.036;2023-11-22T22:59:48;1.00;99.90
36752;DHT22;22718;49.494;7.036;2023-11-22T23:02:22;1.00;99.90
36752;DHT22;22718;49.494;7.036;2023-11-22T23:04:50;0.90;99.90
36752;DHT22;22718;49.494;7.036;2023-11-22T23:07:37;0.90;99.90
36752;DHT22;22718;49.494;7.036;2023-11-22T23:10:05;0.90;99.90
36752;DHT22;22718;49.494;7.036;2023-11-22T23:12:33;0.80;99.90
36752;DHT22;22718;49.494;7.036;2023-11-22T23:14:58;0.80;99.90
36752;DHT22;22718;49.494;7.036;2023-11-22T23:17:26;0.80;99.90
36752;DHT22;22718;49.494;7.036;2023-11-22T23:19:53;0.80;99.90
36752;DHT22;22718;49.494;7.036;2023-11-22T23:22:28;0.80;99.90
36752;DHT22;22718;49.494;7.036;2023-11-22T23:25:07;0.70;99.90
36752;DHT22;22718;49.494;7.036;2023-11-22T23:27:34;0.60;99.90
36752;DHT22;22718;49.494;7.036;2023-11-22T23:30:03;0.60;99.90
36752;DHT22;22718;49.494;7.036;2023-11-22T23:32:41;0.60;99.90
36752;DHT22;22718;49.494;7.036;2023-11-22T23:35:08;0.60;99.90
36752;DHT22;22718;49.494;7.036;2023-11-22T23:37:40;0.60;99.90
36752;DHT22;22718;49.494;7.036;2023-11-22T23:40:08;0.50;99.90
36752;DHT22;22718;49.494;7.036;2023-11-22T23:42:39;0.50;99.90
36752;DHT22;22718;49.494;7.036;2023-11-22T23:45:07;0.50;99.90
36752;DHT22;22718;49.494;7.036;2023-11-22T23:48:01;0.50;99.90
36752;DHT22;22718;49.494;7.036;2023-11-22T23:50:29;0.50;99.90
36752;DHT22;22718;49.494;7.036;2023-11-22T23:52:54;0.50;99.90
36752;DHT22;22718;49.494;7.036;2023-11-22T23:55:20;0.50;99.90
36752;DHT22;22718;49.494;7.036;2023-11-22T23:57:46;0.50;99.90
